LEZG/ZAZ METAR and TAF weather

Enter ICAO airport designator
Station Type Date Time Source
LEZG METAR 2019/08/25 18:30 UTC NOAA

LEZG 251830Z 11011KT 080V150 CAVOK 32/09 Q1014


Station Type Date Time Source
LEZG Decoded METAR 2019/08/25 18:30 UTC NOAA

Station name not available
Aug 25, 2019 - 02:30 PM EDT / 2019.08.25 1830 UTC
Wind: from the ESE (110 degrees) at 13 MPH (11 KT) (direction variable):0
Visibility: greater than 7 mile(s):0
Temperature: 89 F (32 C)
Dew Point: 48 F (9 C)
Relative Humidity: 24%
Pressure (altimeter): 29.94 in. Hg (1014 hPa)
ob: LEZG 251830Z 11011KT 080V150 CAVOK 32/09 Q1014
cycle: 18

Station Type Date Time Source
LEZG TAF 2019/08/25 18:27 UTC NOAA

TAF LEZG 251700Z 2518/2618 11008KT 9999 FEW050 TX34/2614Z TN19/2606Z
TEMPO 2518/2520 11014G24KT
BECMG 2612/2614 11015G25KT

Example: see airport list